Details From RJFF - Fukuoka
To RJGG - Chubu Centrair Intl
Flight Number -
Tags Decoded
Created
Modified
Stats Distance 333 nm / 616 km
Max Altitude 0 ft / 0 m
Waypoints 4
Social Downloads 5
Likes 0
Share VATSIM

Download

Looking for another format? Having issues loading an existing format? Contact us
Advertisement - Login to hide

Notes

Decoded

Route

RJFF IWC BIWWA RJGG

ID Type Via Altitude Latitude Longitude Leg Dist Tot Dist Heading (true) Name
O RJFF APT - 0 ft / 0 m 33.59692˚ 130.44319˚ - 0 nm - -
IWC VOR - 0 ft / 0 m 34.07946˚ 132.14727˚ 89 nm 89 nm 71° / 72° KUGA VORTAC
BIWWA FIX - 0 ft / 0 m 35.11808˚ 136.25486˚ 212 nm 302 nm 72° / 74° -
O RJGG APT - 0 ft / 0 m 34.87389˚ 136.80168˚ 30 nm 332 nm 118° / 119° -

Altitude Profile

Advertisement - Login to hide

Weather


0- 5 10 15 20 25 30 35+ Temperature / ° C

Clouds and Precipitation
Forecast for 2017-12-16 00:00 UTC. Updated 37 minutes ago

Ground ~20,000 ft ~40,000 ft Winds

RJFF

Details ICAO RJFF (FUK)
Name FUKUOKA
Region Japan
Timezone Asia/Tokyo (UTC+9.0)
Stats Elevation 32 ft / 10 m (AMSL)
Location 33.585943° 130.450686°
Runways 1
Magnetic Variation 7.448° W

METAR

RJFF 151930Z AUTO 15003KT 110V170 9999 BKN044 OVC050 08/03 Q1021

Decode

TAF

TAF RJFF 151711Z 1518/1700 20003KT 9999 FEW020 SCT030 BKN040 BECMG 1518/1520 33010KT TEMPO 1612/1618 3000 -SHSNRAGS

Decode

Departure Runways

ID Width Length Bearing (true) Bearing (mag) Surface Threshold Offset Overrun Length
16 197 ft / 60 m 9,217 ft / 2,810 m 150.35° 157.80° Asphalt 0 ft / 0 m 719 ft / 219 m
34 197 ft / 60 m 9,217 ft / 2,810 m 330.35° 337.80° Asphalt 0 ft / 0 m 801 ft / 244 m

RJGG

Details ICAO RJGG (NGO)
Name CHUBU CENTRAIR INTL
Region Japan
Timezone Asia/Tokyo (UTC+9.0)
Stats Elevation 15 ft / 5 m (AMSL)
Location 34.858414° 136.805408°
Runways 1
Magnetic Variation 7.581° W

METAR

RJGG 151930Z 36011KT 9999 FEW025 BKN090 06/02 Q1019 NOSIG

Decode

TAF

TAF RJGG 151708Z 1518/1700 01006KT 9999 FEW025 BECMG 1602/1604 27014KT BECMG 1612/1615 29026KT

Decode

Destination Runways

ID Width Length Bearing (true) Bearing (mag) Surface Threshold Offset Overrun Length
18 197 ft / 60 m 11,511 ft / 3,509 m 168.81° 176.39° Asphalt 0 ft / 0 m 197 ft / 60 m
36 197 ft / 60 m 11,511 ft / 3,509 m 348.81° 356.39° Asphalt 0 ft / 0 m 197 ft / 60 m

Approach Navaids

Runway Type Ident Frequency Range Bearing (true) Bearing (mag) Slope Elevation
18 Localiser ICY 109.70 MHz 25 nm / 46 km 168.79° 176.37° - 12 ft / 4 m (AMSL)
18 Glidescope ICY 109.70 MHz 25 nm / 46 km 176.00° 183.58° 3.00° 12 ft / 4 m (AMSL)
36 Localiser ICX 111.90 MHz 25 nm / 46 km 348.79° 356.37° - 12 ft / 4 m (AMSL)
36 Glidescope ICX 111.90 MHz 25 nm / 46 km 356.00° 3.58° 3.00° 12 ft / 4 m (AMSL)

Popular Alternatives